sensor_id;sensor_type;location;lat;lon;timestamp;temperature;humidity
35085;SHT85;21267;51.032;6.998;2022-11-20T00:00:37;3.34;83.03
35085;SHT85;21267;51.032;6.998;2022-11-20T00:03:04;3.46;82.94
35085;SHT85;21267;51.032;6.998;2022-11-20T00:05:32;3.48;83.01
35085;SHT85;21267;51.032;6.998;2022-11-20T00:07:59;3.46;82.85
35085;SHT85;21267;51.032;6.998;2022-11-20T00:10:25;3.36;82.84
35085;SHT85;21267;51.032;6.998;2022-11-20T00:12:52;3.31;83.12
35085;SHT85;21267;51.032;6.998;2022-11-20T00:15:19;3.40;83.02
35085;SHT85;21267;51.032;6.998;2022-11-20T00:17:46;3.30;82.95
35085;SHT85;21267;51.032;6.998;2022-11-20T00:20:12;3.41;82.60
35085;SHT85;21267;51.032;6.998;2022-11-20T00:22:39;3.34;82.27
35085;SHT85;21267;51.032;6.998;2022-11-20T00:25:06;3.46;82.30
35085;SHT85;21267;51.032;6.998;2022-11-20T00:27:32;3.47;82.20
35085;SHT85;21267;51.032;6.998;2022-11-20T00:29:59;3.26;82.50
35085;SHT85;21267;51.032;6.998;2022-11-20T00:32:25;3.43;82.20
35085;SHT85;21267;51.032;6.998;2022-11-20T00:34:52;3.38;81.81
35085;SHT85;21267;51.032;6.998;2022-11-20T00:37:18;3.41;81.72
35085;SHT85;21267;51.032;6.998;2022-11-20T00:39:45;3.38;81.61
35085;SHT85;21267;51.032;6.998;2022-11-20T00:42:11;3.38;81.97
35085;SHT85;21267;51.032;6.998;2022-11-20T00:44:38;3.34;82.53
35085;SHT85;21267;51.032;6.998;2022-11-20T00:47:04;3.57;82.07
35085;SHT85;21267;51.032;6.998;2022-11-20T00:49:34;3.36;82.29
35085;SHT85;21267;51.032;6.998;2022-11-20T00:52:00;3.34;82.09
35085;SHT85;21267;51.032;6.998;2022-11-20T00:54:27;3.37;82.04
35085;SHT85;21267;51.032;6.998;2022-11-20T00:56:54;3.36;82.42
35085;SHT85;21267;51.032;6.998;2022-11-20T01:01:38;3.31;82.65
35085;SHT85;21267;51.032;6.998;2022-11-20T01:04:05;3.24;82.53
35085;SHT85;21267;51.032;6.998;2022-11-20T01:06:34;3.26;82.46
35085;SHT85;21267;51.032;6.998;2022-11-20T01:09:04;3.34;82.12
35085;SHT85;21267;51.032;6.998;2022-11-20T01:11:35;3.46;82.26
35085;SHT85;21267;51.032;6.998;2022-11-20T01:14:04;3.43;81.62
35085;SHT85;21267;51.032;6.998;2022-11-20T01:16:36;3.31;81.80
35085;SHT85;21267;51.032;6.998;2022-11-20T01:19:05;3.34;82.12
35085;SHT85;21267;51.032;6.998;2022-11-20T01:21:35;3.46;82.03
35085;SHT85;21267;51.032;6.998;2022-11-20T01:24:03;3.46;81.74
35085;SHT85;21267;51.032;6.998;2022-11-20T01:26:33;3.53;81.66
35085;SHT85;21267;51.032;6.998;2022-11-20T01:29:01;3.48;81.74
35085;SHT85;21267;51.032;6.998;2022-11-20T01:31:33;3.47;81.73
35085;SHT85;21267;51.032;6.998;2022-11-20T01:34:04;3.48;81.88
35085;SHT85;21267;51.032;6.998;2022-11-20T01:36:32;3.44;81.87
35085;SHT85;21267;51.032;6.998;2022-11-20T01:39:05;3.36;82.28
35085;SHT85;21267;51.032;6.998;2022-11-20T01:41:33;3.43;82.21
35085;SHT85;21267;51.032;6.998;2022-11-20T01:44:21;3.36;82.31
35085;SHT85;21267;51.032;6.998;2022-11-20T01:47:00;3.27;82.37
35085;SHT85;21267;51.032;6.998;2022-11-20T01:49:35;3.30;82.70
35085;SHT85;21267;51.032;6.998;2022-11-20T01:52:07;3.30;82.55
35085;SHT85;21267;51.032;6.998;2022-11-20T01:54:59;3.37;82.84
35085;SHT85;21267;51.032;6.998;2022-11-20T01:57:28;3.36;82.90
35085;SHT85;21267;51.032;6.998;2022-11-20T02:00:08;3.40;82.43
35085;SHT85;21267;51.032;6.998;2022-11-20T02:02:37;3.43;82.77
35085;SHT85;21267;51.032;6.998;2022-11-20T02:08:10;3.36;82.58
35085;SHT85;21267;51.032;6.998;2022-11-20T02:10:38;3.41;82.69
35085;SHT85;21267;51.032;6.998;2022-11-20T02:13:04;3.41;83.18
35085;SHT85;21267;51.032;6.998;2022-11-20T02:15:50;3.46;83.00
35085;SHT85;21267;51.032;6.998;2022-11-20T02:18:18;3.30;83.31
35085;SHT85;21267;51.032;6.998;2022-11-20T02:20:47;3.36;82.94
35085;SHT85;21267;51.032;6.998;2022-11-20T02:23:16;3.36;83.26
35085;SHT85;21267;51.032;6.998;2022-11-20T02:25:49;3.37;82.93
35085;SHT85;21267;51.032;6.998;2022-11-20T02:28:16;3.31;82.94
35085;SHT85;21267;51.032;6.998;2022-11-20T02:30:43;3.27;83.10
35085;SHT85;21267;51.032;6.998;2022-11-20T02:33:10;3.20;83.03
35085;SHT85;21267;51.032;6.998;2022-11-20T02:35:40;3.19;83.12
35085;SHT85;21267;51.032;6.998;2022-11-20T02:38:07;3.28;82.85
35085;SHT85;21267;51.032;6.998;2022-11-20T02:40:34;3.31;82.55
35085;SHT85;21267;51.032;6.998;2022-11-20T02:43:00;3.31;82.67
35085;SHT85;21267;51.032;6.998;2022-11-20T02:45:27;3.31;82.65
35085;SHT85;21267;51.032;6.998;2022-11-20T02:47:53;3.27;82.64
35085;SHT85;21267;51.032;6.998;2022-11-20T02:50:20;3.40;82.98
35085;SHT85;21267;51.032;6.998;2022-11-20T02:52:47;3.36;82.55
35085;SHT85;21267;51.032;6.998;2022-11-20T02:55:13;3.33;82.70
35085;SHT85;21267;51.032;6.998;2022-11-20T02:57:39;3.16;82.42
35085;SHT85;21267;51.032;6.998;2022-11-20T03:00:07;3.19;82.91
35085;SHT85;21267;51.032;6.998;2022-11-20T03:02:34;3.15;82.91
35085;SHT85;21267;51.032;6.998;2022-11-20T03:05:00;3.09;83.57
35085;SHT85;21267;51.032;6.998;2022-11-20T03:07:27;3.17;83.57
35085;SHT85;21267;51.032;6.998;2022-11-20T03:09:54;3.20;83.43
35085;SHT85;21267;51.032;6.998;2022-11-20T03:12:20;3.10;83.49
35085;SHT85;21267;51.032;6.998;2022-11-20T03:14:47;3.10;83.65
35085;SHT85;21267;51.032;6.998;2022-11-20T03:17:18;3.19;83.86
35085;SHT85;21267;51.032;6.998;2022-11-20T03:19:45;3.20;83.86
35085;SHT85;21267;51.032;6.998;2022-11-20T03:22:11;3.22;83.55
35085;SHT85;21267;51.032;6.998;2022-11-20T03:24:38;3.24;83.52
35085;SHT85;21267;51.032;6.998;2022-11-20T03:27:04;3.23;83.75
35085;SHT85;21267;51.032;6.998;2022-11-20T03:29:31;3.33;83.63
35085;SHT85;21267;51.032;6.998;2022-11-20T03:31:57;3.24;83.74
35085;SHT85;21267;51.032;6.998;2022-11-20T03:34:24;3.22;83.70
35085;SHT85;21267;51.032;6.998;2022-11-20T03:36:50;3.31;83.50
35085;SHT85;21267;51.032;6.998;2022-11-20T03:39:17;3.34;83.49
35085;SHT85;21267;51.032;6.998;2022-11-20T03:41:43;3.33;83.65
35085;SHT85;21267;51.032;6.998;2022-11-20T03:44:11;3.37;83.37
35085;SHT85;21267;51.032;6.998;2022-11-20T03:46:38;3.26;83.37
35085;SHT85;21267;51.032;6.998;2022-11-20T03:49:05;3.30;83.39
35085;SHT85;21267;51.032;6.998;2022-11-20T03:51:34;3.23;83.73
35085;SHT85;21267;51.032;6.998;2022-11-20T03:54:04;3.15;83.73
35085;SHT85;21267;51.032;6.998;2022-11-20T03:56:34;3.13;84.04
35085;SHT85;21267;51.032;6.998;2022-11-20T03:59:02;3.09;84.12
35085;SHT85;21267;51.032;6.998;2022-11-20T04:01:36;3.06;83.88
35085;SHT85;21267;51.032;6.998;2022-11-20T04:04:04;3.05;84.24
35085;SHT85;21267;51.032;6.998;2022-11-20T04:06:36;3.00;84.39
35085;SHT85;21267;51.032;6.998;2022-11-20T04:09:03;3.00;84.63
35085;SHT85;21267;51.032;6.998;2022-11-20T04:11:32;3.15;84.34
35085;SHT85;21267;51.032;6.998;2022-11-20T04:14:03;3.05;84.54
35085;SHT85;21267;51.032;6.998;2022-11-20T04:16:32;3.05;84.95
35085;SHT85;21267;51.032;6.998;2022-11-20T04:19:02;3.00;85.06
35085;SHT85;21267;51.032;6.998;2022-11-20T04:21:29;2.98;85.40
35085;SHT85;21267;51.032;6.998;2022-11-20T04:23:56;2.92;85.96
35085;SHT85;21267;51.032;6.998;2022-11-20T04:26:25;2.89;85.83
35085;SHT85;21267;51.032;6.998;2022-11-20T04:28:52;2.85;85.83
35085;SHT85;21267;51.032;6.998;2022-11-20T04:31:23;2.78;86.09
35085;SHT85;21267;51.032;6.998;2022-11-20T04:33:50;2.81;86.00
35085;SHT85;21267;51.032;6.998;2022-11-20T04:36:23;2.92;85.67
35085;SHT85;21267;51.032;6.998;2022-11-20T04:38:50;2.89;85.47
35085;SHT85;21267;51.032;6.998;2022-11-20T04:41:24;2.98;85.67
35085;SHT85;21267;51.032;6.998;2022-11-20T04:43:52;2.78;86.58
35085;SHT85;21267;51.032;6.998;2022-11-20T04:46:20;2.91;86.28
35085;SHT85;21267;51.032;6.998;2022-11-20T04:48:47;3.02;86.09
35085;SHT85;21267;51.032;6.998;2022-11-20T04:51:14;3.05;86.07
35085;SHT85;21267;51.032;6.998;2022-11-20T04:53:41;3.12;86.05
35085;SHT85;21267;51.032;6.998;2022-11-20T04:56:10;3.15;85.86
35085;SHT85;21267;51.032;6.998;2022-11-20T04:58:37;3.19;85.70
35085;SHT85;21267;51.032;6.998;2022-11-20T05:01:10;3.12;85.94
35085;SHT85;21267;51.032;6.998;2022-11-20T05:03:43;3.12;85.90
35085;SHT85;21267;51.032;6.998;2022-11-20T05:06:11;3.20;85.51
35085;SHT85;21267;51.032;6.998;2022-11-20T05:08:38;3.20;85.25
35085;SHT85;21267;51.032;6.998;2022-11-20T05:11:10;3.19;85.43
35085;SHT85;21267;51.032;6.998;2022-11-20T05:13:37;3.13;85.23
35085;SHT85;21267;51.032;6.998;2022-11-20T05:16:15;3.22;85.16
35085;SHT85;21267;51.032;6.998;2022-11-20T05:18:42;3.22;85.26
35085;SHT85;21267;51.032;6.998;2022-11-20T05:21:10;3.28;84.58
35085;SHT85;21267;51.032;6.998;2022-11-20T05:23:37;3.44;84.40
35085;SHT85;21267;51.032;6.998;2022-11-20T05:26:06;3.20;85.09
35085;SHT85;21267;51.032;6.998;2022-11-20T05:28:34;3.13;84.95
35085;SHT85;21267;51.032;6.998;2022-11-20T05:31:12;3.06;85.38
35085;SHT85;21267;51.032;6.998;2022-11-20T05:33:40;3.15;85.30
35085;SHT85;21267;51.032;6.998;2022-11-20T05:36:08;3.05;85.67
35085;SHT85;21267;51.032;6.998;2022-11-20T05:38:36;3.03;85.88
35085;SHT85;21267;51.032;6.998;2022-11-20T05:43:39;3.16;85.47
35085;SHT85;21267;51.032;6.998;2022-11-20T05:46:08;3.15;85.60
35085;SHT85;21267;51.032;6.998;2022-11-20T05:48:35;3.23;85.36
35085;SHT85;21267;51.032;6.998;2022-11-20T05:51:04;3.22;85.34
35085;SHT85;21267;51.032;6.998;2022-11-20T05:53:35;3.30;85.15
35085;SHT85;21267;51.032;6.998;2022-11-20T05:56:07;3.37;84.90
35085;SHT85;21267;51.032;6.998;2022-11-20T05:58:34;3.27;84.92
35085;SHT85;21267;51.032;6.998;2022-11-20T06:03:40;3.31;84.96
35085;SHT85;21267;51.032;6.998;2022-11-20T06:06:08;3.38;85.10
35085;SHT85;21267;51.032;6.998;2022-11-20T06:08:35;3.33;85.52
35085;SHT85;21267;51.032;6.998;2022-11-20T06:11:09;3.31;85.43
35085;SHT85;21267;51.032;6.998;2022-11-20T06:13:36;3.30;85.70
35085;SHT85;21267;51.032;6.998;2022-11-20T06:16:07;3.23;85.84
35085;SHT85;21267;51.032;6.998;2022-11-20T06:18:34;3.26;86.09
35085;SHT85;21267;51.032;6.998;2022-11-20T06:21:09;3.30;86.38
35085;SHT85;21267;51.032;6.998;2022-11-20T06:23:35;3.13;86.41
35085;SHT85;21267;51.032;6.998;2022-11-20T06:26:04;3.00;87.20
35085;SHT85;21267;51.032;6.998;2022-11-20T06:28:31;2.93;87.76
35085;SHT85;21267;51.032;6.998;2022-11-20T06:30:58;2.93;88.09
35085;SHT85;21267;51.032;6.998;2022-11-20T06:33:25;2.71;88.59
35085;SHT85;21267;51.032;6.998;2022-11-20T06:35:52;2.58;89.07
35085;SHT85;21267;51.032;6.998;2022-11-20T06:38:26;2.64;88.89
35085;SHT85;21267;51.032;6.998;2022-11-20T06:40:53;2.45;89.46
35085;SHT85;21267;51.032;6.998;2022-11-20T06:43:21;2.59;89.27
35085;SHT85;21267;51.032;6.998;2022-11-20T06:45:55;2.58;88.93
35085;SHT85;21267;51.032;6.998;2022-11-20T06:48:23;2.68;88.94
35085;SHT85;21267;51.032;6.998;2022-11-20T06:50:49;2.55;88.86
35085;SHT85;21267;51.032;6.998;2022-11-20T06:53:17;2.48;89.25
35085;SHT85;21267;51.032;6.998;2022-11-20T06:55:47;2.44;89.36
35085;SHT85;21267;51.032;6.998;2022-11-20T06:58:15;2.49;89.22
35085;SHT85;21267;51.032;6.998;2022-11-20T07:00:42;2.54;88.96
35085;SHT85;21267;51.032;6.998;2022-11-20T07:03:10;2.45;89.37
35085;SHT85;21267;51.032;6.998;2022-11-20T07:05:38;2.40;89.65
35085;SHT85;21267;51.032;6.998;2022-11-20T07:08:05;2.49;89.42
35085;SHT85;21267;51.032;6.998;2022-11-20T07:10:32;2.47;89.11
35085;SHT85;21267;51.032;6.998;2022-11-20T07:12:58;2.48;89.41
35085;SHT85;21267;51.032;6.998;2022-11-20T07:15:26;2.65;89.24
35085;SHT85;21267;51.032;6.998;2022-11-20T07:17:52;2.44;89.26
35085;SHT85;21267;51.032;6.998;2022-11-20T07:20:19;2.52;89.25
35085;SHT85;21267;51.032;6.998;2022-11-20T07:22:46;2.49;89.38
35085;SHT85;21267;51.032;6.998;2022-11-20T07:25:12;2.57;89.21
35085;SHT85;21267;51.032;6.998;2022-11-20T07:27:39;2.57;89.27
35085;SHT85;21267;51.032;6.998;2022-11-20T07:33:38;2.58;89.71
35085;SHT85;21267;51.032;6.998;2022-11-20T07:36:05;2.66;89.58
35085;SHT85;21267;51.032;6.998;2022-11-20T07:38:31;2.77;88.87
35085;SHT85;21267;51.032;6.998;2022-11-20T07:40:58;2.81;88.68
35085;SHT85;21267;51.032;6.998;2022-11-20T07:43:27;2.81;88.62
35085;SHT85;21267;51.032;6.998;2022-11-20T07:45:58;2.93;88.65
35085;SHT85;21267;51.032;6.998;2022-11-20T07:48:25;2.88;88.48
35085;SHT85;21267;51.032;6.998;2022-11-20T07:50:56;2.72;89.22
35085;SHT85;21267;51.032;6.998;2022-11-20T07:53:23;2.84;89.40
35085;SHT85;21267;51.032;6.998;2022-11-20T07:55:51;2.95;89.10
35085;SHT85;21267;51.032;6.998;2022-11-20T07:58:21;2.95;89.17
35085;SHT85;21267;51.032;6.998;2022-11-20T08:00:47;2.98;88.87
35085;SHT85;21267;51.032;6.998;2022-11-20T08:03:14;2.99;88.71
35085;SHT85;21267;51.032;6.998;2022-11-20T08:05:47;3.03;88.56
35085;SHT85;21267;51.032;6.998;2022-11-20T08:08:13;3.26;88.18
35085;SHT85;21267;51.032;6.998;2022-11-20T08:10:40;3.38;87.58
35085;SHT85;21267;51.032;6.998;2022-11-20T08:13:08;3.56;87.28
35085;SHT85;21267;51.032;6.998;2022-11-20T08:15:53;3.37;86.95
35085;SHT85;21267;51.032;6.998;2022-11-20T08:18:20;3.31;87.52
35085;SHT85;21267;51.032;6.998;2022-11-20T08:21:03;3.53;87.10
35085;SHT85;21267;51.032;6.998;2022-11-20T08:23:30;3.50;86.90
35085;SHT85;21267;51.032;6.998;2022-11-20T08:25:56;3.50;86.77
35085;SHT85;21267;51.032;6.998;2022-11-20T08:28:23;3.34;87.07
35085;SHT85;21267;51.032;6.998;2022-11-20T08:30:50;3.38;87.48
35085;SHT85;21267;51.032;6.998;2022-11-20T08:33:17;3.44;87.54
35085;SHT85;21267;51.032;6.998;2022-11-20T08:35:44;3.53;87.46
35085;SHT85;21267;51.032;6.998;2022-11-20T08:38:10;3.51;87.32
35085;SHT85;21267;51.032;6.998;2022-11-20T08:40:37;3.63;87.13
35085;SHT85;21267;51.032;6.998;2022-11-20T08:43:04;3.54;87.20
35085;SHT85;21267;51.032;6.998;2022-11-20T08:45:30;3.60;87.22
35085;SHT85;21267;51.032;6.998;2022-11-20T08:48:04;3.66;87.05
35085;SHT85;21267;51.032;6.998;2022-11-20T08:50:31;3.60;87.14
35085;SHT85;21267;51.032;6.998;2022-11-20T08:53:07;3.68;87.37
35085;SHT85;21267;51.032;6.998;2022-11-20T08:55:34;3.58;87.36
35085;SHT85;21267;51.032;6.998;2022-11-20T08:58:04;3.66;87.27
35085;SHT85;21267;51.032;6.998;2022-11-20T09:00:31;3.67;87.39
35085;SHT85;21267;51.032;6.998;2022-11-20T09:02:59;3.85;87.31
35085;SHT85;21267;51.032;6.998;2022-11-20T09:05:27;3.87;86.88
35085;SHT85;21267;51.032;6.998;2022-11-20T09:07:57;3.99;86.90
35085;SHT85;21267;51.032;6.998;2022-11-20T09:10:23;3.96;86.47
35085;SHT85;21267;51.032;6.998;2022-11-20T09:12:51;3.94;86.44
35085;SHT85;21267;51.032;6.998;2022-11-20T09:15:19;3.99;86.65
35085;SHT85;21267;51.032;6.998;2022-11-20T09:17:56;3.98;86.68
35085;SHT85;21267;51.032;6.998;2022-11-20T09:20:23;4.05;86.74
35085;SHT85;21267;51.032;6.998;2022-11-20T09:22:49;4.10;86.34
35085;SHT85;21267;51.032;6.998;2022-11-20T09:25:16;4.10;86.34
35085;SHT85;21267;51.032;6.998;2022-11-20T09:27:43;4.06;86.14
35085;SHT85;21267;51.032;6.998;2022-11-20T09:30:13;4.16;85.97
35085;SHT85;21267;51.032;6.998;2022-11-20T09:32:40;4.25;85.14
35085;SHT85;21267;51.032;6.998;2022-11-20T09:35:07;4.37;84.79
35085;SHT85;21267;51.032;6.998;2022-11-20T09:37:34;4.36;83.96
35085;SHT85;21267;51.032;6.998;2022-11-20T09:40:01;4.63;84.46
35085;SHT85;21267;51.032;6.998;2022-11-20T09:42:45;4.85;82.84
35085;SHT85;21267;51.032;6.998;2022-11-20T09:51:06;4.76;83.09
35085;SHT85;21267;51.032;6.998;2022-11-20T09:56:04;4.66;83.23
35085;SHT85;21267;51.032;6.998;2022-11-20T09:58:35;4.92;82.15
35085;SHT85;21267;51.032;6.998;2022-11-20T10:06:17;5.01;81.24
35085;SHT85;21267;51.032;6.998;2022-11-20T10:08:54;4.94;81.13
35085;SHT85;21267;51.032;6.998;2022-11-20T10:29:43;4.81;83.20
35085;SHT85;21267;51.032;6.998;2022-11-20T10:32:17;4.80;83.53
35085;SHT85;21267;51.032;6.998;2022-11-20T10:34:47;4.64;83.40
35085;SHT85;21267;51.032;6.998;2022-11-20T10:37:22;4.60;83.72
35085;SHT85;21267;51.032;6.998;2022-11-20T10:39:56;4.60;83.83
35085;SHT85;21267;51.032;6.998;2022-11-20T10:42:36;4.58;83.56
35085;SHT85;21267;51.032;6.998;2022-11-20T10:45:30;4.70;83.59
35085;SHT85;21267;51.032;6.998;2022-11-20T10:50:36;4.89;83.67
35085;SHT85;21267;51.032;6.998;2022-11-20T10:53:11;4.94;83.26
35085;SHT85;21267;51.032;6.998;2022-11-20T10:55:46;4.87;83.48
35085;SHT85;21267;51.032;6.998;2022-11-20T11:01:20;5.09;83.32
35085;SHT85;21267;51.032;6.998;2022-11-20T11:03:54;5.04;83.22
35085;SHT85;21267;51.032;6.998;2022-11-20T11:06:31;4.99;83.17
35085;SHT85;21267;51.032;6.998;2022-11-20T11:09:06;5.09;83.44
35085;SHT85;21267;51.032;6.998;2022-11-20T11:11:35;5.04;83.12
35085;SHT85;21267;51.032;6.998;2022-11-20T11:14:15;4.99;83.58
35085;SHT85;21267;51.032;6.998;2022-11-20T11:16:55;5.09;83.34
35085;SHT85;21267;51.032;6.998;2022-11-20T11:19:23;5.11;82.96
35085;SHT85;21267;51.032;6.998;2022-11-20T11:21:53;5.11;83.13
35085;SHT85;21267;51.032;6.998;2022-11-20T11:24:24;5.18;83.22
35085;SHT85;21267;51.032;6.998;2022-11-20T11:27:13;5.14;83.35
35085;SHT85;21267;51.032;6.998;2022-11-20T11:29:43;5.04;83.48
35085;SHT85;21267;51.032;6.998;2022-11-20T11:32:17;5.01;83.77
35085;SHT85;21267;51.032;6.998;2022-11-20T11:34:58;5.05;83.42
35085;SHT85;21267;51.032;6.998;2022-11-20T11:37:32;5.12;83.82
35085;SHT85;21267;51.032;6.998;2022-11-20T11:39:59;5.03;83.58
35085;SHT85;21267;51.032;6.998;2022-11-20T11:42:52;5.01;83.80
35085;SHT85;21267;51.032;6.998;2022-11-20T11:45:21;5.08;83.78
35085;SHT85;21267;51.032;6.998;2022-11-20T11:47:48;5.15;83.63
35085;SHT85;21267;51.032;6.998;2022-11-20T11:50:18;5.19;83.54
35085;SHT85;21267;51.032;6.998;2022-11-20T11:52:50;5.18;83.56
35085;SHT85;21267;51.032;6.998;2022-11-20T11:55:31;5.15;83.43
35085;SHT85;21267;51.032;6.998;2022-11-20T12:01:12;5.24;83.57
35085;SHT85;21267;51.032;6.998;2022-11-20T12:03:52;5.31;83.49
35085;SHT85;21267;51.032;6.998;2022-11-20T12:06:21;5.39;83.23
35085;SHT85;21267;51.032;6.998;2022-11-20T12:14:27;5.46;83.17
35085;SHT85;21267;51.032;6.998;2022-11-20T12:16:56;5.45;83.47
35085;SHT85;21267;51.032;6.998;2022-11-20T12:19:24;5.52;83.42
35085;SHT85;21267;51.032;6.998;2022-11-20T12:24:40;5.45;83.54
35085;SHT85;21267;51.032;6.998;2022-11-20T12:30:23;5.35;83.71
35085;SHT85;21267;51.032;6.998;2022-11-20T12:35:44;5.36;83.76
35085;SHT85;21267;51.032;6.998;2022-11-20T12:47:27;5.25;84.22
35085;SHT85;21267;51.032;6.998;2022-11-20T12:50:22;5.31;84.27
35085;SHT85;21267;51.032;6.998;2022-11-20T12:53:25;5.24;84.36
35085;SHT85;21267;51.032;6.998;2022-11-20T12:59:16;5.34;84.31
35085;SHT85;21267;51.032;6.998;2022-11-20T13:01:48;5.42;84.19
35085;SHT85;21267;51.032;6.998;2022-11-20T13:04:30;5.46;84.52
35085;SHT85;21267;51.032;6.998;2022-11-20T13:07:02;5.50;84.68
35085;SHT85;21267;51.032;6.998;2022-11-20T13:09:30;5.53;84.75
35085;SHT85;21267;51.032;6.998;2022-11-20T13:12:07;5.59;84.26
35085;SHT85;21267;51.032;6.998;2022-11-20T13:17:17;5.76;83.44
35085;SHT85;21267;51.032;6.998;2022-11-20T13:19:56;5.86;83.20
35085;SHT85;21267;51.032;6.998;2022-11-20T13:22:41;5.86;83.48
35085;SHT85;21267;51.032;6.998;2022-11-20T13:25:31;5.94;83.00
35085;SHT85;21267;51.032;6.998;2022-11-20T13:27:58;5.80;83.26
35085;SHT85;21267;51.032;6.998;2022-11-20T13:30:27;5.86;83.24
35085;SHT85;21267;51.032;6.998;2022-11-20T13:32:56;5.77;83.29
35085;SHT85;21267;51.032;6.998;2022-11-20T13:35:37;5.80;83.46
35085;SHT85;21267;51.032;6.998;2022-11-20T13:38:13;5.77;83.47
35085;SHT85;21267;51.032;6.998;2022-11-20T13:41:10;5.94;83.28
35085;SHT85;21267;51.032;6.998;2022-11-20T13:43:59;5.83;83.27
35085;SHT85;21267;51.032;6.998;2022-11-20T13:49:09;5.86;83.53
35085;SHT85;21267;51.032;6.998;2022-11-20T13:51:42;5.83;83.44
35085;SHT85;21267;51.032;6.998;2022-11-20T14:02:27;5.94;83.54
35085;SHT85;21267;51.032;6.998;2022-11-20T14:04:58;5.98;83.29
35085;SHT85;21267;51.032;6.998;2022-11-20T14:07:39;5.93;83.24
35085;SHT85;21267;51.032;6.998;2022-11-20T14:10:20;5.90;83.58
35085;SHT85;21267;51.032;6.998;2022-11-20T14:12:52;5.93;83.90
35085;SHT85;21267;51.032;6.998;2022-11-20T14:15:33;5.87;83.76
35085;SHT85;21267;51.032;6.998;2022-11-20T14:18:14;5.89;83.97
35085;SHT85;21267;51.032;6.998;2022-11-20T14:20:42;5.94;84.06
35085;SHT85;21267;51.032;6.998;2022-11-20T14:23:10;5.97;84.22
35085;SHT85;21267;51.032;6.998;2022-11-20T14:25:37;5.94;84.11
35085;SHT85;21267;51.032;6.998;2022-11-20T14:28:22;6.01;84.25
35085;SHT85;21267;51.032;6.998;2022-11-20T14:30:51;6.01;84.03
35085;SHT85;21267;51.032;6.998;2022-11-20T14:33:19;6.00;84.26
35085;SHT85;21267;51.032;6.998;2022-11-20T14:35:50;5.97;84.34
35085;SHT85;21267;51.032;6.998;2022-11-20T14:38:19;6.00;84.44
35085;SHT85;21267;51.032;6.998;2022-11-20T14:40:47;5.97;84.64
35085;SHT85;21267;51.032;6.998;2022-11-20T14:43:22;5.95;84.70
35085;SHT85;21267;51.032;6.998;2022-11-20T14:46:00;5.97;84.73
35085;SHT85;21267;51.032;6.998;2022-11-20T14:48:33;5.97;84.82
35085;SHT85;21267;51.032;6.998;2022-11-20T14:51:03;5.98;84.92
35085;SHT85;21267;51.032;6.998;2022-11-20T14:53:30;5.93;85.01
35085;SHT85;21267;51.032;6.998;2022-11-20T14:55:59;5.93;85.22
35085;SHT85;21267;51.032;6.998;2022-11-20T14:58:28;5.95;85.27
35085;SHT85;21267;51.032;6.998;2022-11-20T15:01:05;5.98;85.22
35085;SHT85;21267;51.032;6.998;2022-11-20T15:03:39;5.91;85.31
35085;SHT85;21267;51.032;6.998;2022-11-20T15:06:09;5.95;85.41
35085;SHT85;21267;51.032;6.998;2022-11-20T15:08:37;5.95;85.59
35085;SHT85;21267;51.032;6.998;2022-11-20T15:11:17;6.00;85.54
35085;SHT85;21267;51.032;6.998;2022-11-20T15:13:45;6.00;85.57
35085;SHT85;21267;51.032;6.998;2022-11-20T15:16:19;6.04;85.68
35085;SHT85;21267;51.032;6.998;2022-11-20T15:18:46;6.04;85.76
35085;SHT85;21267;51.032;6.998;2022-11-20T15:21:15;6.01;85.76
35085;SHT85;21267;51.032;6.998;2022-11-20T15:23:42;5.95;85.88
35085;SHT85;21267;51.032;6.998;2022-11-20T15:26:10;6.01;86.42
35085;SHT85;21267;51.032;6.998;2022-11-20T15:28:45;5.93;86.94
35085;SHT85;21267;51.032;6.998;2022-11-20T15:31:16;5.77;88.16
35085;SHT85;21267;51.032;6.998;2022-11-20T15:33:43;5.69;89.51
35085;SHT85;21267;51.032;6.998;2022-11-20T15:36:10;5.57;90.35
35085;SHT85;21267;51.032;6.998;2022-11-20T15:38:36;5.53;90.99
35085;SHT85;21267;51.032;6.998;2022-11-20T15:41:03;5.42;92.12
35085;SHT85;21267;51.032;6.998;2022-11-20T15:43:30;5.42;92.59
35085;SHT85;21267;51.032;6.998;2022-11-20T15:46:03;5.43;93.08
35085;SHT85;21267;51.032;6.998;2022-11-20T15:48:42;5.43;93.11
35085;SHT85;21267;51.032;6.998;2022-11-20T15:51:38;5.38;93.29
35085;SHT85;21267;51.032;6.998;2022-11-20T15:54:11;5.38;93.80
35085;SHT85;21267;51.032;6.998;2022-11-20T15:56:52;5.45;94.10
35085;SHT85;21267;51.032;6.998;2022-11-20T15:59:32;5.42;94.30
35085;SHT85;21267;51.032;6.998;2022-11-20T16:02:14;5.43;94.54
35085;SHT85;21267;51.032;6.998;2022-11-20T16:04:55;5.38;94.72
35085;SHT85;21267;51.032;6.998;2022-11-20T16:07:35;5.45;94.94
35085;SHT85;21267;51.032;6.998;2022-11-20T16:10:15;5.43;95.21
35085;SHT85;21267;51.032;6.998;2022-11-20T16:12:50;5.49;95.56
35085;SHT85;21267;51.032;6.998;2022-11-20T16:15:35;5.49;95.70
35085;SHT85;21267;51.032;6.998;2022-11-20T16:18:13;5.56;95.86
35085;SHT85;21267;51.032;6.998;2022-11-20T16:20:55;5.56;96.00
35085;SHT85;21267;51.032;6.998;2022-11-20T16:23:21;5.57;96.12
35085;SHT85;21267;51.032;6.998;2022-11-20T16:26:13;5.57;96.11
35085;SHT85;21267;51.032;6.998;2022-11-20T16:28:54;5.60;96.29
35085;SHT85;21267;51.032;6.998;2022-11-20T16:31:20;5.60;96.45
35085;SHT85;21267;51.032;6.998;2022-11-20T16:33:59;5.63;96.47
35085;SHT85;21267;51.032;6.998;2022-11-20T16:36:26;5.67;96.63
35085;SHT85;21267;51.032;6.998;2022-11-20T16:38:55;5.66;96.71
35085;SHT85;21267;51.032;6.998;2022-11-20T16:41:37;5.69;96.80
35085;SHT85;21267;51.032;6.998;2022-11-20T16:44:09;5.67;96.85
35085;SHT85;21267;51.032;6.998;2022-11-20T16:46:37;5.69;96.97
35085;SHT85;21267;51.032;6.998;2022-11-20T16:49:13;5.69;96.91
35085;SHT85;21267;51.032;6.998;2022-11-20T16:51:41;5.69;97.00
35085;SHT85;21267;51.032;6.998;2022-11-20T16:54:09;5.69;97.12
35085;SHT85;21267;51.032;6.998;2022-11-20T16:56:36;5.69;97.23
35085;SHT85;21267;51.032;6.998;2022-11-20T16:59:02;5.69;97.41
35085;SHT85;21267;51.032;6.998;2022-11-20T17:01:29;5.70;97.58
35085;SHT85;21267;51.032;6.998;2022-11-20T17:04:01;5.71;97.69
35085;SHT85;21267;51.032;6.998;2022-11-20T17:06:30;5.74;97.69
35085;SHT85;21267;51.032;6.998;2022-11-20T17:08:58;5.70;97.70
35085;SHT85;21267;51.032;6.998;2022-11-20T17:11:25;5.76;97.76
35085;SHT85;21267;51.032;6.998;2022-11-20T17:13:56;5.77;97.79
35085;SHT85;21267;51.032;6.998;2022-11-20T17:16:39;5.82;97.79
35085;SHT85;21267;51.032;6.998;2022-11-20T17:19:06;5.84;97.75
35085;SHT85;21267;51.032;6.998;2022-11-20T17:21:33;5.83;97.73
35085;SHT85;21267;51.032;6.998;2022-11-20T17:24:05;5.83;97.82
35085;SHT85;21267;51.032;6.998;2022-11-20T17:26:33;5.87;97.83
35085;SHT85;21267;51.032;6.998;2022-11-20T17:29:09;5.82;97.87
35085;SHT85;21267;51.032;6.998;2022-11-20T17:31:37;5.84;97.91
35085;SHT85;21267;51.032;6.998;2022-11-20T17:34:05;5.90;97.84
35085;SHT85;21267;51.032;6.998;2022-11-20T17:36:32;5.84;97.83
35085;SHT85;21267;51.032;6.998;2022-11-20T17:38:59;5.87;97.93
35085;SHT85;21267;51.032;6.998;2022-11-20T17:41:27;5.87;97.97